sensor_id;sensor_type;location;lat;lon;timestamp;P1;durP1;ratioP1;P2;durP2;ratioP2
2570;SDS011;1295;51.130;6.732;2023-10-31T00:00:33;30.07;;;4.33;;
2570;SDS011;1295;51.130;6.732;2023-10-31T00:02:58;38.87;;;5.40;;
2570;SDS011;1295;51.130;6.732;2023-10-31T00:05:24;42.87;;;4.27;;
2570;SDS011;1295;51.130;6.732;2023-10-31T00:07:49;47.27;;;4.20;;
2570;SDS011;1295;51.130;6.732;2023-10-31T00:10:15;48.87;;;5.10;;
2570;SDS011;1295;51.130;6.732;2023-10-31T00:12:41;49.93;;;6.57;;
2570;SDS011;1295;51.130;6.732;2023-10-31T00:15:13;48.13;;;7.67;;
2570;SDS011;1295;51.130;6.732;2023-10-31T00:17:38;54.73;;;11.10;;
2570;SDS011;1295;51.130;6.732;2023-10-31T00:20:04;49.80;;;5.90;;
2570;SDS011;1295;51.130;6.732;2023-10-31T00:22:32;52.00;;;6.67;;
2570;SDS011;1295;51.130;6.732;2023-10-31T00:24:58;52.83;;;6.77;;
2570;SDS011;1295;51.130;6.732;2023-10-31T00:27:23;43.80;;;5.57;;
2570;SDS011;1295;51.130;6.732;2023-10-31T00:29:49;48.30;;;4.63;;
2570;SDS011;1295;51.130;6.732;2023-10-31T00:32:14;46.10;;;5.43;;
2570;SDS011;1295;51.130;6.732;2023-10-31T00:34:40;49.73;;;3.70;;
2570;SDS011;1295;51.130;6.732;2023-10-31T00:37:06;43.73;;;4.97;;
2570;SDS011;1295;51.130;6.732;2023-10-31T00:39:31;38.50;;;2.40;;
2570;SDS011;1295;51.130;6.732;2023-10-31T00:41:57;48.33;;;3.20;;
2570;SDS011;1295;51.130;6.732;2023-10-31T00:44:23;45.77;;;2.87;;
2570;SDS011;1295;51.130;6.732;2023-10-31T00:46:48;46.10;;;2.93;;
2570;SDS011;1295;51.130;6.732;2023-10-31T00:49:14;41.80;;;2.93;;
2570;SDS011;1295;51.130;6.732;2023-10-31T00:51:39;47.73;;;3.23;;
2570;SDS011;1295;51.130;6.732;2023-10-31T00:54:05;51.00;;;6.57;;
2570;SDS011;1295;51.130;6.732;2023-10-31T00:56:31;59.20;;;4.90;;
2570;SDS011;1295;51.130;6.732;2023-10-31T00:58:56;49.27;;;3.63;;
2570;SDS011;1295;51.130;6.732;2023-10-31T01:01:22;48.30;;;3.50;;
2570;SDS011;1295;51.130;6.732;2023-10-31T01:03:48;48.43;;;3.87;;
2570;SDS011;1295;51.130;6.732;2023-10-31T01:06:13;47.77;;;3.40;;
2570;SDS011;1295;51.130;6.732;2023-10-31T01:08:39;50.70;;;4.00;;
2570;SDS011;1295;51.130;6.732;2023-10-31T01:11:04;49.93;;;4.27;;
2570;SDS011;1295;51.130;6.732;2023-10-31T01:13:30;52.20;;;4.27;;
2570;SDS011;1295;51.130;6.732;2023-10-31T01:15:56;53.03;;;5.07;;
2570;SDS011;1295;51.130;6.732;2023-10-31T01:18:22;46.37;;;5.43;;
2570;SDS011;1295;51.130;6.732;2023-10-31T01:20:48;52.33;;;4.20;;
2570;SDS011;1295;51.130;6.732;2023-10-31T01:23:13;49.30;;;4.30;;
2570;SDS011;1295;51.130;6.732;2023-10-31T01:25:39;52.10;;;4.70;;
2570;SDS011;1295;51.130;6.732;2023-10-31T01:28:05;49.43;;;4.67;;
2570;SDS011;1295;51.130;6.732;2023-10-31T01:30:31;48.87;;;4.37;;
2570;SDS011;1295;51.130;6.732;2023-10-31T01:32:56;47.83;;;4.20;;
2570;SDS011;1295;51.130;6.732;2023-10-31T01:35:21;52.63;;;4.50;;
2570;SDS011;1295;51.130;6.732;2023-10-31T01:37:47;53.30;;;6.03;;
2570;SDS011;1295;51.130;6.732;2023-10-31T01:40:14;52.33;;;7.50;;
2570;SDS011;1295;51.130;6.732;2023-10-31T01:42:39;58.90;;;7.87;;
2570;SDS011;1295;51.130;6.732;2023-10-31T01:45:05;55.70;;;6.23;;
2570;SDS011;1295;51.130;6.732;2023-10-31T01:47:32;52.70;;;5.90;;
2570;SDS011;1295;51.130;6.732;2023-10-31T01:49:59;56.63;;;7.97;;
2570;SDS011;1295;51.130;6.732;2023-10-31T01:52:25;51.37;;;7.83;;
2570;SDS011;1295;51.130;6.732;2023-10-31T01:54:50;53.83;;;6.30;;
2570;SDS011;1295;51.130;6.732;2023-10-31T01:57:16;51.83;;;6.23;;
2570;SDS011;1295;51.130;6.732;2023-10-31T01:59:41;53.07;;;6.50;;
2570;SDS011;1295;51.130;6.732;2023-10-31T02:02:07;50.00;;;4.73;;
2570;SDS011;1295;51.130;6.732;2023-10-31T02:04:33;50.13;;;5.53;;
2570;SDS011;1295;51.130;6.732;2023-10-31T02:06:59;53.07;;;4.67;;
2570;SDS011;1295;51.130;6.732;2023-10-31T02:09:25;51.00;;;4.30;;
2570;SDS011;1295;51.130;6.732;2023-10-31T02:11:50;51.97;;;4.80;;
2570;SDS011;1295;51.130;6.732;2023-10-31T02:14:16;45.37;;;4.90;;
2570;SDS011;1295;51.130;6.732;2023-10-31T02:19:33;55.27;;;4.83;;
2570;SDS011;1295;51.130;6.732;2023-10-31T02:21:59;50.10;;;4.23;;
2570;SDS011;1295;51.130;6.732;2023-10-31T02:24:25;52.33;;;4.83;;
2570;SDS011;1295;51.130;6.732;2023-10-31T02:26:50;51.67;;;4.67;;
2570;SDS011;1295;51.130;6.732;2023-10-31T02:29:17;58.53;;;5.90;;
2570;SDS011;1295;51.130;6.732;2023-10-31T02:31:42;51.93;;;5.23;;
2570;SDS011;1295;51.130;6.732;2023-10-31T02:34:08;52.57;;;5.83;;
2570;SDS011;1295;51.130;6.732;2023-10-31T02:36:33;54.03;;;5.10;;
2570;SDS011;1295;51.130;6.732;2023-10-31T02:39:00;50.53;;;5.77;;
2570;SDS011;1295;51.130;6.732;2023-10-31T02:41:25;50.97;;;5.30;;
2570;SDS011;1295;51.130;6.732;2023-10-31T02:43:50;51.27;;;4.90;;
2570;SDS011;1295;51.130;6.732;2023-10-31T02:46:16;50.73;;;4.80;;
2570;SDS011;1295;51.130;6.732;2023-10-31T02:48:42;51.57;;;4.60;;
2570;SDS011;1295;51.130;6.732;2023-10-31T02:51:07;51.17;;;5.40;;
2570;SDS011;1295;51.130;6.732;2023-10-31T02:53:34;52.90;;;6.23;;
2570;SDS011;1295;51.130;6.732;2023-10-31T02:55:59;54.97;;;5.80;;
2570;SDS011;1295;51.130;6.732;2023-10-31T02:58:25;51.37;;;6.17;;
2570;SDS011;1295;51.130;6.732;2023-10-31T03:00:51;51.50;;;5.00;;
2570;SDS011;1295;51.130;6.732;2023-10-31T03:03:16;56.00;;;6.47;;
2570;SDS011;1295;51.130;6.732;2023-10-31T03:05:42;54.50;;;5.90;;
2570;SDS011;1295;51.130;6.732;2023-10-31T03:08:07;51.20;;;4.97;;
2570;SDS011;1295;51.130;6.732;2023-10-31T03:10:33;58.23;;;5.77;;
2570;SDS011;1295;51.130;6.732;2023-10-31T03:12:59;52.70;;;6.00;;
2570;SDS011;1295;51.130;6.732;2023-10-31T03:15:24;51.50;;;5.97;;
2570;SDS011;1295;51.130;6.732;2023-10-31T03:17:50;51.60;;;5.10;;
2570;SDS011;1295;51.130;6.732;2023-10-31T03:20:16;52.10;;;5.50;;
2570;SDS011;1295;51.130;6.732;2023-10-31T03:22:42;50.53;;;4.00;;
2570;SDS011;1295;51.130;6.732;2023-10-31T03:25:19;51.00;;;4.40;;
2570;SDS011;1295;51.130;6.732;2023-10-31T03:27:45;51.90;;;4.80;;
2570;SDS011;1295;51.130;6.732;2023-10-31T03:30:11;50.17;;;3.93;;
2570;SDS011;1295;51.130;6.732;2023-10-31T03:32:37;46.83;;;4.50;;
2570;SDS011;1295;51.130;6.732;2023-10-31T03:35:02;48.20;;;4.40;;
2570;SDS011;1295;51.130;6.732;2023-10-31T03:37:29;53.03;;;3.90;;
2570;SDS011;1295;51.130;6.732;2023-10-31T03:39:55;51.43;;;5.13;;
2570;SDS011;1295;51.130;6.732;2023-10-31T03:42:21;53.23;;;4.80;;
2570;SDS011;1295;51.130;6.732;2023-10-31T03:44:46;51.07;;;4.40;;
2570;SDS011;1295;51.130;6.732;2023-10-31T03:47:12;49.90;;;3.60;;
2570;SDS011;1295;51.130;6.732;2023-10-31T03:49:39;49.43;;;4.20;;
2570;SDS011;1295;51.130;6.732;2023-10-31T03:52:03;48.80;;;3.53;;
2570;SDS011;1295;51.130;6.732;2023-10-31T03:54:29;50.10;;;3.37;;
2570;SDS011;1295;51.130;6.732;2023-10-31T03:56:54;51.10;;;4.53;;
2570;SDS011;1295;51.130;6.732;2023-10-31T03:59:20;50.50;;;3.60;;
2570;SDS011;1295;51.130;6.732;2023-10-31T04:01:46;49.70;;;3.40;;
2570;SDS011;1295;51.130;6.732;2023-10-31T04:04:11;48.20;;;3.10;;
2570;SDS011;1295;51.130;6.732;2023-10-31T04:06:37;47.93;;;3.23;;
2570;SDS011;1295;51.130;6.732;2023-10-31T04:09:03;49.90;;;3.60;;
2570;SDS011;1295;51.130;6.732;2023-10-31T04:11:29;49.97;;;3.07;;
2570;SDS011;1295;51.130;6.732;2023-10-31T04:13:55;47.97;;;4.00;;
2570;SDS011;1295;51.130;6.732;2023-10-31T04:16:20;49.20;;;3.70;;
2570;SDS011;1295;51.130;6.732;2023-10-31T04:18:46;53.43;;;4.37;;
2570;SDS011;1295;51.130;6.732;2023-10-31T04:21:11;50.50;;;4.10;;
2570;SDS011;1295;51.130;6.732;2023-10-31T04:23:52;49.67;;;3.90;;
2570;SDS011;1295;51.130;6.732;2023-10-31T04:26:18;43.37;;;4.23;;
2570;SDS011;1295;51.130;6.732;2023-10-31T04:28:43;49.40;;;4.00;;
2570;SDS011;1295;51.130;6.732;2023-10-31T04:31:09;50.93;;;3.40;;
2570;SDS011;1295;51.130;6.732;2023-10-31T04:33:35;48.87;;;3.50;;
2570;SDS011;1295;51.130;6.732;2023-10-31T04:36:00;50.50;;;4.43;;
2570;SDS011;1295;51.130;6.732;2023-10-31T04:38:26;57.50;;;7.67;;
2570;SDS011;1295;51.130;6.732;2023-10-31T04:40:52;50.57;;;4.07;;
2570;SDS011;1295;51.130;6.732;2023-10-31T04:43:19;49.17;;;4.03;;
2570;SDS011;1295;51.130;6.732;2023-10-31T04:45:44;51.93;;;4.70;;
2570;SDS011;1295;51.130;6.732;2023-10-31T04:48:10;41.77;;;4.37;;
2570;SDS011;1295;51.130;6.732;2023-10-31T04:50:36;50.57;;;4.80;;
2570;SDS011;1295;51.130;6.732;2023-10-31T04:53:02;50.57;;;4.30;;
2570;SDS011;1295;51.130;6.732;2023-10-31T04:55:27;49.50;;;4.00;;
2570;SDS011;1295;51.130;6.732;2023-10-31T04:57:53;51.60;;;4.53;;
2570;SDS011;1295;51.130;6.732;2023-10-31T05:00:19;49.67;;;5.00;;
2570;SDS011;1295;51.130;6.732;2023-10-31T05:02:44;48.70;;;4.20;;
2570;SDS011;1295;51.130;6.732;2023-10-31T05:05:10;49.10;;;4.70;;
2570;SDS011;1295;51.130;6.732;2023-10-31T05:07:36;52.30;;;4.67;;
2570;SDS011;1295;51.130;6.732;2023-10-31T05:10:01;55.03;;;4.93;;
2570;SDS011;1295;51.130;6.732;2023-10-31T05:12:27;49.70;;;4.93;;
2570;SDS011;1295;51.130;6.732;2023-10-31T05:14:52;46.63;;;4.20;;
2570;SDS011;1295;51.130;6.732;2023-10-31T05:17:18;49.80;;;4.20;;
2570;SDS011;1295;51.130;6.732;2023-10-31T05:19:44;52.03;;;4.67;;
2570;SDS011;1295;51.130;6.732;2023-10-31T05:22:10;50.20;;;4.37;;
2570;SDS011;1295;51.130;6.732;2023-10-31T05:24:36;50.13;;;5.20;;
2570;SDS011;1295;51.130;6.732;2023-10-31T05:27:01;51.57;;;4.30;;
2570;SDS011;1295;51.130;6.732;2023-10-31T05:29:27;55.63;;;5.03;;
2570;SDS011;1295;51.130;6.732;2023-10-31T05:31:54;49.60;;;4.73;;
2570;SDS011;1295;51.130;6.732;2023-10-31T05:34:19;49.50;;;3.90;;
2570;SDS011;1295;51.130;6.732;2023-10-31T05:36:46;49.13;;;4.43;;
2570;SDS011;1295;51.130;6.732;2023-10-31T05:39:11;51.27;;;5.03;;
2570;SDS011;1295;51.130;6.732;2023-10-31T05:41:37;49.03;;;4.50;;
2570;SDS011;1295;51.130;6.732;2023-10-31T05:44:03;50.27;;;4.23;;
2570;SDS011;1295;51.130;6.732;2023-10-31T05:46:29;51.47;;;4.70;;
2570;SDS011;1295;51.130;6.732;2023-10-31T05:48:55;49.53;;;5.53;;
2570;SDS011;1295;51.130;6.732;2023-10-31T05:51:20;53.97;;;5.53;;
2570;SDS011;1295;51.130;6.732;2023-10-31T05:53:46;55.20;;;5.77;;
2570;SDS011;1295;51.130;6.732;2023-10-31T05:56:13;53.20;;;5.70;;
2570;SDS011;1295;51.130;6.732;2023-10-31T05:58:43;51.27;;;5.60;;
2570;SDS011;1295;51.130;6.732;2023-10-31T06:01:09;49.30;;;5.00;;
2570;SDS011;1295;51.130;6.732;2023-10-31T06:03:34;51.67;;;6.40;;
2570;SDS011;1295;51.130;6.732;2023-10-31T06:06:00;51.57;;;5.90;;
2570;SDS011;1295;51.130;6.732;2023-10-31T06:08:26;49.70;;;6.00;;
2570;SDS011;1295;51.130;6.732;2023-10-31T06:10:53;52.20;;;5.10;;
2570;SDS011;1295;51.130;6.732;2023-10-31T06:13:19;50.17;;;6.40;;
2570;SDS011;1295;51.130;6.732;2023-10-31T06:15:45;52.80;;;6.37;;
2570;SDS011;1295;51.130;6.732;2023-10-31T06:18:10;48.27;;;5.23;;
2570;SDS011;1295;51.130;6.732;2023-10-31T06:20:37;55.83;;;5.60;;
2570;SDS011;1295;51.130;6.732;2023-10-31T06:23:02;62.03;;;5.20;;
2570;SDS011;1295;51.130;6.732;2023-10-31T06:25:28;51.53;;;5.93;;
2570;SDS011;1295;51.130;6.732;2023-10-31T06:27:53;53.67;;;6.30;;
2570;SDS011;1295;51.130;6.732;2023-10-31T06:30:20;48.13;;;5.80;;
2570;SDS011;1295;51.130;6.732;2023-10-31T06:32:45;51.67;;;5.60;;
2570;SDS011;1295;51.130;6.732;2023-10-31T06:35:11;53.33;;;5.83;;
2570;SDS011;1295;51.130;6.732;2023-10-31T06:37:37;52.47;;;6.30;;
2570;SDS011;1295;51.130;6.732;2023-10-31T06:40:04;51.70;;;6.50;;
2570;SDS011;1295;51.130;6.732;2023-10-31T06:42:31;52.87;;;6.83;;
2570;SDS011;1295;51.130;6.732;2023-10-31T06:44:57;56.03;;;5.80;;
2570;SDS011;1295;51.130;6.732;2023-10-31T06:47:22;50.77;;;6.43;;
2570;SDS011;1295;51.130;6.732;2023-10-31T06:49:48;52.87;;;6.27;;
2570;SDS011;1295;51.130;6.732;2023-10-31T06:52:14;53.20;;;6.60;;
2570;SDS011;1295;51.130;6.732;2023-10-31T06:54:39;52.10;;;7.73;;
2570;SDS011;1295;51.130;6.732;2023-10-31T06:57:05;51.60;;;8.00;;
2570;SDS011;1295;51.130;6.732;2023-10-31T06:59:31;53.43;;;7.97;;
2570;SDS011;1295;51.130;6.732;2023-10-31T07:01:57;53.33;;;7.50;;
2570;SDS011;1295;51.130;6.732;2023-10-31T07:04:30;53.50;;;8.97;;
2570;SDS011;1295;51.130;6.732;2023-10-31T07:06:55;59.17;;;8.53;;
2570;SDS011;1295;51.130;6.732;2023-10-31T07:09:21;50.47;;;6.20;;
2570;SDS011;1295;51.130;6.732;2023-10-31T07:11:46;54.70;;;10.37;;
2570;SDS011;1295;51.130;6.732;2023-10-31T07:14:12;54.67;;;8.13;;
2570;SDS011;1295;51.130;6.732;2023-10-31T07:16:53;54.20;;;9.00;;
2570;SDS011;1295;51.130;6.732;2023-10-31T07:19:18;56.93;;;9.53;;
2570;SDS011;1295;51.130;6.732;2023-10-31T07:21:44;55.07;;;9.50;;
2570;SDS011;1295;51.130;6.732;2023-10-31T07:24:10;53.90;;;6.53;;
2570;SDS011;1295;51.130;6.732;2023-10-31T07:26:36;52.33;;;8.30;;
2570;SDS011;1295;51.130;6.732;2023-10-31T07:29:02;56.03;;;7.90;;
2570;SDS011;1295;51.130;6.732;2023-10-31T07:31:28;51.70;;;6.83;;
2570;SDS011;1295;51.130;6.732;2023-10-31T07:33:53;52.40;;;7.83;;
2570;SDS011;1295;51.130;6.732;2023-10-31T07:36:19;52.70;;;8.73;;
2570;SDS011;1295;51.130;6.732;2023-10-31T07:38:44;54.37;;;8.97;;
2570;SDS011;1295;51.130;6.732;2023-10-31T07:41:11;50.20;;;8.13;;
2570;SDS011;1295;51.130;6.732;2023-10-31T07:43:36;52.00;;;7.97;;
2570;SDS011;1295;51.130;6.732;2023-10-31T07:46:02;53.57;;;8.50;;
2570;SDS011;1295;51.130;6.732;2023-10-31T07:48:29;54.47;;;8.13;;
2570;SDS011;1295;51.130;6.732;2023-10-31T07:50:56;52.67;;;8.30;;
2570;SDS011;1295;51.130;6.732;2023-10-31T07:53:21;53.77;;;7.60;;
2570;SDS011;1295;51.130;6.732;2023-10-31T07:55:47;53.63;;;6.97;;
2570;SDS011;1295;51.130;6.732;2023-10-31T07:58:13;56.77;;;8.40;;
2570;SDS011;1295;51.130;6.732;2023-10-31T08:00:38;52.20;;;7.97;;
2570;SDS011;1295;51.130;6.732;2023-10-31T08:03:04;51.73;;;7.70;;
2570;SDS011;1295;51.130;6.732;2023-10-31T08:05:30;53.47;;;9.07;;
2570;SDS011;1295;51.130;6.732;2023-10-31T08:07:56;55.50;;;7.17;;
2570;SDS011;1295;51.130;6.732;2023-10-31T08:10:22;53.10;;;6.93;;
2570;SDS011;1295;51.130;6.732;2023-10-31T08:12:47;54.50;;;7.10;;
2570;SDS011;1295;51.130;6.732;2023-10-31T08:15:13;49.00;;;7.10;;
2570;SDS011;1295;51.130;6.732;2023-10-31T08:17:39;51.33;;;7.10;;
2570;SDS011;1295;51.130;6.732;2023-10-31T08:20:05;52.87;;;7.07;;
2570;SDS011;1295;51.130;6.732;2023-10-31T08:22:32;52.03;;;7.83;;
2570;SDS011;1295;51.130;6.732;2023-10-31T08:24:57;53.00;;;6.60;;
2570;SDS011;1295;51.130;6.732;2023-10-31T08:27:23;50.70;;;8.73;;
2570;SDS011;1295;51.130;6.732;2023-10-31T08:29:48;52.80;;;6.07;;
2570;SDS011;1295;51.130;6.732;2023-10-31T08:32:14;51.63;;;6.13;;
2570;SDS011;1295;51.130;6.732;2023-10-31T08:34:40;51.27;;;6.33;;
2570;SDS011;1295;51.130;6.732;2023-10-31T08:37:05;53.67;;;6.93;;
2570;SDS011;1295;51.130;6.732;2023-10-31T08:39:32;51.37;;;6.40;;
2570;SDS011;1295;51.130;6.732;2023-10-31T08:41:57;52.60;;;6.40;;
2570;SDS011;1295;51.130;6.732;2023-10-31T08:44:23;54.83;;;6.73;;
2570;SDS011;1295;51.130;6.732;2023-10-31T08:46:49;49.20;;;6.80;;
2570;SDS011;1295;51.130;6.732;2023-10-31T08:49:15;51.83;;;6.60;;
2570;SDS011;1295;51.130;6.732;2023-10-31T08:51:41;52.90;;;5.90;;
2570;SDS011;1295;51.130;6.732;2023-10-31T08:54:06;45.50;;;7.90;;
2570;SDS011;1295;51.130;6.732;2023-10-31T08:56:32;54.07;;;7.07;;
2570;SDS011;1295;51.130;6.732;2023-10-31T08:58:58;51.50;;;6.10;;
2570;SDS011;1295;51.130;6.732;2023-10-31T09:01:24;53.07;;;6.47;;
2570;SDS011;1295;51.130;6.732;2023-10-31T09:03:50;49.77;;;7.10;;
2570;SDS011;1295;51.130;6.732;2023-10-31T09:06:15;51.77;;;6.60;;
2570;SDS011;1295;51.130;6.732;2023-10-31T09:08:41;52.80;;;5.80;;
2570;SDS011;1295;51.130;6.732;2023-10-31T09:11:06;51.90;;;5.50;;
2570;SDS011;1295;51.130;6.732;2023-10-31T09:13:32;54.70;;;7.10;;
2570;SDS011;1295;51.130;6.732;2023-10-31T09:15:58;54.40;;;7.00;;
2570;SDS011;1295;51.130;6.732;2023-10-31T09:18:23;54.23;;;6.20;;
2570;SDS011;1295;51.130;6.732;2023-10-31T09:20:49;52.90;;;7.10;;
2570;SDS011;1295;51.130;6.732;2023-10-31T09:23:15;51.07;;;6.63;;
2570;SDS011;1295;51.130;6.732;2023-10-31T09:25:40;52.10;;;6.70;;
2570;SDS011;1295;51.130;6.732;2023-10-31T09:28:06;51.77;;;5.23;;
2570;SDS011;1295;51.130;6.732;2023-10-31T09:30:31;49.00;;;5.37;;
2570;SDS011;1295;51.130;6.732;2023-10-31T09:32:57;47.33;;;5.20;;
2570;SDS011;1295;51.130;6.732;2023-10-31T09:35:24;51.77;;;5.50;;
2570;SDS011;1295;51.130;6.732;2023-10-31T09:37:49;50.60;;;5.20;;
2570;SDS011;1295;51.130;6.732;2023-10-31T09:40:15;51.10;;;5.40;;
2570;SDS011;1295;51.130;6.732;2023-10-31T09:42:41;50.90;;;4.77;;
2570;SDS011;1295;51.130;6.732;2023-10-31T09:45:07;54.40;;;4.90;;
2570;SDS011;1295;51.130;6.732;2023-10-31T09:47:33;48.80;;;3.83;;
2570;SDS011;1295;51.130;6.732;2023-10-31T09:49:59;47.53;;;3.67;;
2570;SDS011;1295;51.130;6.732;2023-10-31T09:52:24;51.10;;;4.50;;
2570;SDS011;1295;51.130;6.732;2023-10-31T09:54:50;49.63;;;3.87;;
2570;SDS011;1295;51.130;6.732;2023-10-31T09:57:15;50.47;;;4.43;;
2570;SDS011;1295;51.130;6.732;2023-10-31T09:59:41;48.27;;;3.63;;
2570;SDS011;1295;51.130;6.732;2023-10-31T10:02:07;52.80;;;4.70;;
2570;SDS011;1295;51.130;6.732;2023-10-31T10:04:32;50.00;;;4.03;;
2570;SDS011;1295;51.130;6.732;2023-10-31T10:06:58;46.90;;;3.80;;
2570;SDS011;1295;51.130;6.732;2023-10-31T10:09:24;45.10;;;4.67;;
2570;SDS011;1295;51.130;6.732;2023-10-31T10:11:49;50.80;;;3.53;;
2570;SDS011;1295;51.130;6.732;2023-10-31T10:14:16;46.10;;;3.23;;
2570;SDS011;1295;51.130;6.732;2023-10-31T10:16:40;51.37;;;4.50;;
2570;SDS011;1295;51.130;6.732;2023-10-31T10:19:15;49.93;;;3.80;;
2570;SDS011;1295;51.130;6.732;2023-10-31T10:21:49;48.03;;;4.30;;
2570;SDS011;1295;51.130;6.732;2023-10-31T10:24:16;45.37;;;3.50;;
2570;SDS011;1295;51.130;6.732;2023-10-31T10:26:41;52.73;;;4.90;;
2570;SDS011;1295;51.130;6.732;2023-10-31T10:29:07;48.30;;;4.17;;
2570;SDS011;1295;51.130;6.732;2023-10-31T10:31:40;45.40;;;4.07;;
2570;SDS011;1295;51.130;6.732;2023-10-31T10:34:06;47.97;;;3.33;;
2570;SDS011;1295;51.130;6.732;2023-10-31T10:36:33;51.10;;;3.90;;
2570;SDS011;1295;51.130;6.732;2023-10-31T10:38:58;48.30;;;3.90;;
2570;SDS011;1295;51.130;6.732;2023-10-31T10:41:25;51.20;;;4.07;;
2570;SDS011;1295;51.130;6.732;2023-10-31T10:43:56;55.60;;;4.53;;
2570;SDS011;1295;51.130;6.732;2023-10-31T10:46:24;48.77;;;4.23;;
2570;SDS011;1295;51.130;6.732;2023-10-31T10:48:50;49.80;;;3.67;;
2570;SDS011;1295;51.130;6.732;2023-10-31T10:51:18;47.43;;;3.60;;
2570;SDS011;1295;51.130;6.732;2023-10-31T10:53:48;47.27;;;4.77;;
2570;SDS011;1295;51.130;6.732;2023-10-31T10:56:19;49.17;;;3.70;;
2570;SDS011;1295;51.130;6.732;2023-10-31T10:58:49;48.70;;;3.87;;
2570;SDS011;1295;51.130;6.732;2023-10-31T11:01:10;49.60;;;3.40;;
2570;SDS011;1295;51.130;6.732;2023-10-31T11:03:35;51.83;;;4.00;;
2570;SDS011;1295;51.130;6.732;2023-10-31T11:06:01;51.70;;;3.80;;
2570;SDS011;1295;51.130;6.732;2023-10-31T11:08:27;51.07;;;4.50;;
2570;SDS011;1295;51.130;6.732;2023-10-31T11:10:53;51.10;;;4.37;;
2570;SDS011;1295;51.130;6.732;2023-10-31T11:13:19;52.10;;;4.10;;
2570;SDS011;1295;51.130;6.732;2023-10-31T11:15:45;54.67;;;3.90;;
2570;SDS011;1295;51.130;6.732;2023-10-31T11:18:11;48.20;;;3.57;;
2570;SDS011;1295;51.130;6.732;2023-10-31T11:20:37;50.70;;;4.97;;
2570;SDS011;1295;51.130;6.732;2023-10-31T11:23:02;49.90;;;4.87;;
2570;SDS011;1295;51.130;6.732;2023-10-31T11:25:28;48.80;;;3.63;;
2570;SDS011;1295;51.130;6.732;2023-10-31T11:27:53;50.23;;;4.37;;
2570;SDS011;1295;51.130;6.732;2023-10-31T11:30:20;50.53;;;4.40;;
2570;SDS011;1295;51.130;6.732;2023-10-31T11:32:47;49.47;;;5.03;;
2570;SDS011;1295;51.130;6.732;2023-10-31T11:35:13;47.80;;;4.03;;
2570;SDS011;1295;51.130;6.732;2023-10-31T11:37:39;47.67;;;3.63;;
2570;SDS011;1295;51.130;6.732;2023-10-31T11:42:41;50.10;;;3.30;;
2570;SDS011;1295;51.130;6.732;2023-10-31T11:45:08;51.63;;;4.23;;
2570;SDS011;1295;51.130;6.732;2023-10-31T11:50:10;56.07;;;5.23;;
2570;SDS011;1295;51.130;6.732;2023-10-31T11:52:36;48.93;;;5.50;;
2570;SDS011;1295;51.130;6.732;2023-10-31T11:55:02;48.87;;;3.80;;
2570;SDS011;1295;51.130;6.732;2023-10-31T11:57:28;49.50;;;4.53;;
2570;SDS011;1295;51.130;6.732;2023-10-31T11:59:54;50.70;;;4.70;;
2570;SDS011;1295;51.130;6.732;2023-10-31T12:02:19;50.77;;;3.63;;
2570;SDS011;1295;51.130;6.732;2023-10-31T12:04:46;47.57;;;4.70;;
2570;SDS011;1295;51.130;6.732;2023-10-31T12:07:11;55.03;;;6.70;;
2570;SDS011;1295;51.130;6.732;2023-10-31T12:12:11;48.30;;;4.10;;
2570;SDS011;1295;51.130;6.732;2023-10-31T12:14:36;50.80;;;5.87;;
2570;SDS011;1295;51.130;6.732;2023-10-31T12:17:03;55.60;;;4.70;;
2570;SDS011;1295;51.130;6.732;2023-10-31T12:19:28;48.40;;;4.70;;
2570;SDS011;1295;51.130;6.732;2023-10-31T12:21:55;51.23;;;4.03;;
2570;SDS011;1295;51.130;6.732;2023-10-31T12:24:20;50.60;;;5.20;;
2570;SDS011;1295;51.130;6.732;2023-10-31T12:26:46;56.50;;;5.20;;
2570;SDS011;1295;51.130;6.732;2023-10-31T12:29:12;54.20;;;4.70;;
2570;SDS011;1295;51.130;6.732;2023-10-31T12:31:39;53.20;;;4.30;;
2570;SDS011;1295;51.130;6.732;2023-10-31T12:34:04;52.50;;;4.07;;
2570;SDS011;1295;51.130;6.732;2023-10-31T12:36:29;50.80;;;3.40;;
2570;SDS011;1295;51.130;6.732;2023-10-31T12:38:55;51.13;;;3.53;;
2570;SDS011;1295;51.130;6.732;2023-10-31T12:41:21;53.10;;;4.53;;
2570;SDS011;1295;51.130;6.732;2023-10-31T12:43:47;47.83;;;3.20;;
2570;SDS011;1295;51.130;6.732;2023-10-31T12:48:49;49.13;;;3.83;;
2570;SDS011;1295;51.130;6.732;2023-10-31T12:51:14;50.73;;;4.47;;
2570;SDS011;1295;51.130;6.732;2023-10-31T12:53:41;48.27;;;3.40;;
2570;SDS011;1295;51.130;6.732;2023-10-31T12:56:06;51.23;;;4.00;;
2570;SDS011;1295;51.130;6.732;2023-10-31T12:58:32;48.67;;;4.43;;
2570;SDS011;1295;51.130;6.732;2023-10-31T13:00:58;56.17;;;8.03;;
2570;SDS011;1295;51.130;6.732;2023-10-31T13:03:24;52.03;;;4.07;;
2570;SDS011;1295;51.130;6.732;2023-10-31T13:05:49;50.43;;;3.80;;
2570;SDS011;1295;51.130;6.732;2023-10-31T13:08:15;56.40;;;5.23;;
2570;SDS011;1295;51.130;6.732;2023-10-31T13:10:41;54.07;;;5.13;;
2570;SDS011;1295;51.130;6.732;2023-10-31T13:13:06;52.27;;;4.77;;
2570;SDS011;1295;51.130;6.732;2023-10-31T13:15:32;50.60;;;2.83;;
2570;SDS011;1295;51.130;6.732;2023-10-31T13:17:58;50.70;;;3.00;;
2570;SDS011;1295;51.130;6.732;2023-10-31T13:20:23;52.60;;;3.40;;
2570;SDS011;1295;51.130;6.732;2023-10-31T13:22:49;49.60;;;3.73;;
2570;SDS011;1295;51.130;6.732;2023-10-31T13:25:15;48.83;;;3.73;;
2570;SDS011;1295;51.130;6.732;2023-10-31T13:27:41;50.00;;;3.20;;
2570;SDS011;1295;51.130;6.732;2023-10-31T13:30:07;51.37;;;3.70;;
2570;SDS011;1295;51.130;6.732;2023-10-31T13:32:33;51.83;;;3.87;;
2570;SDS011;1295;51.130;6.732;2023-10-31T13:34:58;53.10;;;3.30;;
2570;SDS011;1295;51.130;6.732;2023-10-31T13:37:24;51.93;;;4.47;;
2570;SDS011;1295;51.130;6.732;2023-10-31T13:39:50;43.40;;;4.33;;
2570;SDS011;1295;51.130;6.732;2023-10-31T13:42:15;51.30;;;3.50;;
2570;SDS011;1295;51.130;6.732;2023-10-31T13:44:41;51.50;;;4.20;;
2570;SDS011;1295;51.130;6.732;2023-10-31T13:47:07;49.10;;;3.80;;
2570;SDS011;1295;51.130;6.732;2023-10-31T13:49:32;50.60;;;3.87;;
2570;SDS011;1295;51.130;6.732;2023-10-31T13:51:58;53.93;;;3.67;;
2570;SDS011;1295;51.130;6.732;2023-10-31T13:54:24;47.37;;;2.87;;
2570;SDS011;1295;51.130;6.732;2023-10-31T13:56:49;50.70;;;3.77;;
2570;SDS011;1295;51.130;6.732;2023-10-31T13:59:15;50.50;;;3.60;;
2570;SDS011;1295;51.130;6.732;2023-10-31T14:01:41;49.87;;;4.80;;
2570;SDS011;1295;51.130;6.732;2023-10-31T14:04:07;55.97;;;5.83;;
2570;SDS011;1295;51.130;6.732;2023-10-31T14:06:33;54.10;;;3.70;;
2570;SDS011;1295;51.130;6.732;2023-10-31T14:08:59;63.13;;;5.10;;
2570;SDS011;1295;51.130;6.732;2023-10-31T14:11:24;53.60;;;4.43;;
2570;SDS011;1295;51.130;6.732;2023-10-31T14:13:50;54.03;;;4.57;;
2570;SDS011;1295;51.130;6.732;2023-10-31T14:16:16;53.83;;;4.00;;
2570;SDS011;1295;51.130;6.732;2023-10-31T14:18:41;50.70;;;4.30;;
2570;SDS011;1295;51.130;6.732;2023-10-31T14:21:07;50.90;;;3.97;;
2570;SDS011;1295;51.130;6.732;2023-10-31T14:23:33;53.43;;;3.40;;
2570;SDS011;1295;51.130;6.732;2023-10-31T14:25:58;52.87;;;4.30;;
2570;SDS011;1295;51.130;6.732;2023-10-31T14:28:24;51.00;;;3.60;;
2570;SDS011;1295;51.130;6.732;2023-10-31T14:30:50;50.37;;;2.97;;
2570;SDS011;1295;51.130;6.732;2023-10-31T14:33:15;51.00;;;3.33;;
2570;SDS011;1295;51.130;6.732;2023-10-31T14:35:41;65.53;;;3.60;;
2570;SDS011;1295;51.130;6.732;2023-10-31T14:38:06;56.73;;;4.53;;
2570;SDS011;1295;51.130;6.732;2023-10-31T14:40:32;54.60;;;3.80;;
2570;SDS011;1295;51.130;6.732;2023-10-31T14:42:58;54.10;;;3.47;;
2570;SDS011;1295;51.130;6.732;2023-10-31T14:45:24;50.87;;;2.70;;
2570;SDS011;1295;51.130;6.732;2023-10-31T14:47:50;50.97;;;2.70;;
2570;SDS011;1295;51.130;6.732;2023-10-31T14:50:16;54.57;;;3.40;;
2570;SDS011;1295;51.130;6.732;2023-10-31T14:52:41;56.77;;;4.07;;
2570;SDS011;1295;51.130;6.732;2023-10-31T14:55:07;52.30;;;3.57;;
2570;SDS011;1295;51.130;6.732;2023-10-31T14:57:33;51.03;;;3.43;;
2570;SDS011;1295;51.130;6.732;2023-10-31T14:59:59;51.50;;;3.90;;
2570;SDS011;1295;51.130;6.732;2023-10-31T15:02:24;50.80;;;3.70;;
2570;SDS011;1295;51.130;6.732;2023-10-31T15:04:50;53.40;;;4.97;;